sensor_id;sensor_type;location;lat;lon;timestamp;P1;durP1;ratioP1;P2;durP2;ratioP2
1328;SDS011;658;48.820;9.354;2023-12-20T00:01:33;2.03;;;1.93;;
1328;SDS011;658;48.820;9.354;2023-12-20T00:05:33;1.87;;;1.77;;
1328;SDS011;658;48.820;9.354;2023-12-20T00:09:35;1.60;;;1.50;;
1328;SDS011;658;48.820;9.354;2023-12-20T00:13:38;1.50;;;1.40;;
1328;SDS011;658;48.820;9.354;2023-12-20T00:17:38;1.40;;;1.30;;
1328;SDS011;658;48.820;9.354;2023-12-20T00:21:39;1.67;;;1.57;;
1328;SDS011;658;48.820;9.354;2023-12-20T00:25:39;1.70;;;1.60;;
1328;SDS011;658;48.820;9.354;2023-12-20T00:29:40;1.70;;;1.60;;
1328;SDS011;658;48.820;9.354;2023-12-20T00:33:42;1.37;;;1.27;;
1328;SDS011;658;48.820;9.354;2023-12-20T00:37:43;1.60;;;1.50;;
1328;SDS011;658;48.820;9.354;2023-12-20T00:41:44;1.40;;;1.30;;
1328;SDS011;658;48.820;9.354;2023-12-20T00:45:44;1.63;;;1.53;;
1328;SDS011;658;48.820;9.354;2023-12-20T00:49:47;1.60;;;1.50;;
1328;SDS011;658;48.820;9.354;2023-12-20T00:53:49;1.50;;;1.40;;
1328;SDS011;658;48.820;9.354;2023-12-20T00:57:54;4.63;;;1.33;;
1328;SDS011;658;48.820;9.354;2023-12-20T01:01:59;1.30;;;1.20;;
1328;SDS011;658;48.820;9.354;2023-12-20T01:06:00;1.53;;;1.43;;
1328;SDS011;658;48.820;9.354;2023-12-20T01:10:00;1.50;;;1.40;;
1328;SDS011;658;48.820;9.354;2023-12-20T01:14:01;1.40;;;1.30;;
1328;SDS011;658;48.820;9.354;2023-12-20T01:18:01;2.03;;;1.40;;
1328;SDS011;658;48.820;9.354;2023-12-20T01:22:02;1.30;;;1.20;;
1328;SDS011;658;48.820;9.354;2023-12-20T01:26:03;1.40;;;1.30;;
1328;SDS011;658;48.820;9.354;2023-12-20T01:30:06;1.40;;;1.30;;
1328;SDS011;658;48.820;9.354;2023-12-20T01:34:07;1.60;;;1.50;;
1328;SDS011;658;48.820;9.354;2023-12-20T01:38:08;1.30;;;1.20;;
1328;SDS011;658;48.820;9.354;2023-12-20T01:42:09;1.33;;;1.23;;
1328;SDS011;658;48.820;9.354;2023-12-20T01:46:09;1.37;;;1.30;;
1328;SDS011;658;48.820;9.354;2023-12-20T01:50:12;1.20;;;1.20;;
1328;SDS011;658;48.820;9.354;2023-12-20T01:54:12;1.37;;;1.27;;
1328;SDS011;658;48.820;9.354;2023-12-20T01:58:16;1.00;;;1.00;;
1328;SDS011;658;48.820;9.354;2023-12-20T02:02:17;1.00;;;1.00;;
1328;SDS011;658;48.820;9.354;2023-12-20T02:06:18;1.07;;;1.07;;
1328;SDS011;658;48.820;9.354;2023-12-20T02:10:21;1.43;;;1.33;;
1328;SDS011;658;48.820;9.354;2023-12-20T02:14:22;1.20;;;1.20;;
1328;SDS011;658;48.820;9.354;2023-12-20T02:18:22;0.90;;;0.90;;
1328;SDS011;658;48.820;9.354;2023-12-20T02:22:23;1.20;;;1.10;;
1328;SDS011;658;48.820;9.354;2023-12-20T02:26:24;1.20;;;1.10;;
1328;SDS011;658;48.820;9.354;2023-12-20T02:30:24;1.00;;;1.00;;
1328;SDS011;658;48.820;9.354;2023-12-20T02:34:25;1.17;;;1.17;;
1328;SDS011;658;48.820;9.354;2023-12-20T02:38:26;1.10;;;1.10;;
1328;SDS011;658;48.820;9.354;2023-12-20T02:42:26;1.17;;;1.07;;
1328;SDS011;658;48.820;9.354;2023-12-20T02:46:29;1.00;;;1.00;;
1328;SDS011;658;48.820;9.354;2023-12-20T02:50:29;1.07;;;1.07;;
1328;SDS011;658;48.820;9.354;2023-12-20T02:54:30;0.93;;;0.93;;
1328;SDS011;658;48.820;9.354;2023-12-20T02:58:30;1.00;;;1.00;;
1328;SDS011;658;48.820;9.354;2023-12-20T03:02:31;0.83;;;0.83;;
1328;SDS011;658;48.820;9.354;2023-12-20T03:06:32;0.90;;;0.90;;
1328;SDS011;658;48.820;9.354;2023-12-20T03:10:32;1.30;;;1.20;;
1328;SDS011;658;48.820;9.354;2023-12-20T03:14:35;0.90;;;0.90;;
1328;SDS011;658;48.820;9.354;2023-12-20T03:18:36;1.00;;;0.90;;
1328;SDS011;658;48.820;9.354;2023-12-20T03:22:36;0.93;;;0.93;;
1328;SDS011;658;48.820;9.354;2023-12-20T03:26:37;1.00;;;1.00;;
1328;SDS011;658;48.820;9.354;2023-12-20T03:30:38;0.83;;;0.83;;
1328;SDS011;658;48.820;9.354;2023-12-20T03:34:38;1.27;;;1.23;;
1328;SDS011;658;48.820;9.354;2023-12-20T03:38:39;1.10;;;1.00;;
1328;SDS011;658;48.820;9.354;2023-12-20T03:42:40;0.77;;;0.77;;
1328;SDS011;658;48.820;9.354;2023-12-20T03:46:40;1.00;;;1.00;;
1328;SDS011;658;48.820;9.354;2023-12-20T03:50:41;0.80;;;0.80;;
1328;SDS011;658;48.820;9.354;2023-12-20T03:54:41;0.80;;;0.80;;
1328;SDS011;658;48.820;9.354;2023-12-20T03:58:42;0.80;;;0.80;;
1328;SDS011;658;48.820;9.354;2023-12-20T04:02:43;0.70;;;0.70;;
1328;SDS011;658;48.820;9.354;2023-12-20T04:06:44;0.90;;;0.90;;
1328;SDS011;658;48.820;9.354;2023-12-20T04:10:44;1.00;;;0.90;;
1328;SDS011;658;48.820;9.354;2023-12-20T04:14:45;0.77;;;0.77;;
1328;SDS011;658;48.820;9.354;2023-12-20T04:18:45;0.83;;;0.83;;
1328;SDS011;658;48.820;9.354;2023-12-20T04:22:46;0.90;;;0.90;;
1328;SDS011;658;48.820;9.354;2023-12-20T04:26:49;0.70;;;0.70;;
1328;SDS011;658;48.820;9.354;2023-12-20T04:30:50;0.80;;;0.80;;
1328;SDS011;658;48.820;9.354;2023-12-20T04:34:50;0.80;;;0.80;;
1328;SDS011;658;48.820;9.354;2023-12-20T04:38:51;0.80;;;0.80;;
1328;SDS011;658;48.820;9.354;2023-12-20T04:42:51;1.20;;;1.10;;
1328;SDS011;658;48.820;9.354;2023-12-20T04:46:52;0.70;;;0.70;;
1328;SDS011;658;48.820;9.354;2023-12-20T04:50:52;0.57;;;0.57;;
1328;SDS011;658;48.820;9.354;2023-12-20T04:54:53;1.20;;;0.93;;
1328;SDS011;658;48.820;9.354;2023-12-20T04:58:53;0.80;;;0.80;;
1328;SDS011;658;48.820;9.354;2023-12-20T05:02:54;0.90;;;0.90;;
1328;SDS011;658;48.820;9.354;2023-12-20T05:06:55;0.70;;;0.70;;
1328;SDS011;658;48.820;9.354;2023-12-20T05:10:55;0.70;;;0.70;;
1328;SDS011;658;48.820;9.354;2023-12-20T05:14:58;0.80;;;0.80;;
1328;SDS011;658;48.820;9.354;2023-12-20T05:19:00;0.80;;;0.80;;
1328;SDS011;658;48.820;9.354;2023-12-20T05:23:06;0.60;;;0.60;;
1328;SDS011;658;48.820;9.354;2023-12-20T05:27:07;0.70;;;0.70;;
1328;SDS011;658;48.820;9.354;2023-12-20T05:31:07;0.70;;;0.70;;
1328;SDS011;658;48.820;9.354;2023-12-20T05:35:08;1.10;;;0.80;;
1328;SDS011;658;48.820;9.354;2023-12-20T05:39:08;0.60;;;0.60;;
1328;SDS011;658;48.820;9.354;2023-12-20T05:43:09;1.37;;;0.90;;
1328;SDS011;658;48.820;9.354;2023-12-20T05:47:09;0.50;;;0.50;;
1328;SDS011;658;48.820;9.354;2023-12-20T05:51:13;0.70;;;0.70;;
1328;SDS011;658;48.820;9.354;2023-12-20T05:55:14;0.63;;;0.63;;
1328;SDS011;658;48.820;9.354;2023-12-20T05:59:19;0.80;;;0.80;;
1328;SDS011;658;48.820;9.354;2023-12-20T06:03:19;0.80;;;0.70;;
1328;SDS011;658;48.820;9.354;2023-12-20T06:07:20;1.20;;;0.70;;
1328;SDS011;658;48.820;9.354;2023-12-20T06:11:20;0.50;;;0.50;;
1328;SDS011;658;48.820;9.354;2023-12-20T06:15:21;6.50;;;1.80;;
1328;SDS011;658;48.820;9.354;2023-12-20T06:19:21;4.30;;;1.67;;
1328;SDS011;658;48.820;9.354;2023-12-20T06:23:22;4.43;;;1.93;;
1328;SDS011;658;48.820;9.354;2023-12-20T06:27:23;2.10;;;1.20;;
1328;SDS011;658;48.820;9.354;2023-12-20T06:31:23;4.40;;;1.40;;
1328;SDS011;658;48.820;9.354;2023-12-20T06:35:26;3.90;;;1.37;;
1328;SDS011;658;48.820;9.354;2023-12-20T06:39:26;2.67;;;1.27;;
1328;SDS011;658;48.820;9.354;2023-12-20T06:43:28;2.70;;;1.50;;
1328;SDS011;658;48.820;9.354;2023-12-20T06:47:29;1.40;;;1.20;;
1328;SDS011;658;48.820;9.354;2023-12-20T06:51:29;3.40;;;1.13;;
1328;SDS011;658;48.820;9.354;2023-12-20T06:55:30;1.57;;;1.10;;
1328;SDS011;658;48.820;9.354;2023-12-20T06:59:31;1.73;;;1.10;;
1328;SDS011;658;48.820;9.354;2023-12-20T07:03:32;2.30;;;1.13;;
1328;SDS011;658;48.820;9.354;2023-12-20T07:07:32;2.20;;;1.10;;
1328;SDS011;658;48.820;9.354;2023-12-20T07:11:33;2.00;;;1.00;;
1328;SDS011;658;48.820;9.354;2023-12-20T07:15:38;4.00;;;1.00;;
1328;SDS011;658;48.820;9.354;2023-12-20T07:19:39;2.53;;;0.90;;
1328;SDS011;658;48.820;9.354;2023-12-20T07:23:42;1.43;;;1.10;;
1328;SDS011;658;48.820;9.354;2023-12-20T07:27:45;3.27;;;1.10;;
1328;SDS011;658;48.820;9.354;2023-12-20T07:31:45;1.00;;;0.70;;
1328;SDS011;658;48.820;9.354;2023-12-20T07:35:46;4.47;;;1.80;;
1328;SDS011;658;48.820;9.354;2023-12-20T07:39:47;1.43;;;0.80;;
1328;SDS011;658;48.820;9.354;2023-12-20T07:43:47;2.00;;;0.97;;
1328;SDS011;658;48.820;9.354;2023-12-20T07:47:48;1.00;;;0.80;;
1328;SDS011;658;48.820;9.354;2023-12-20T07:51:50;0.97;;;0.80;;
1328;SDS011;658;48.820;9.354;2023-12-20T07:55:53;1.27;;;0.80;;
1328;SDS011;658;48.820;9.354;2023-12-20T07:59:56;0.77;;;0.70;;
1328;SDS011;658;48.820;9.354;2023-12-20T08:03:56;1.20;;;1.07;;
1328;SDS011;658;48.820;9.354;2023-12-20T08:07:59;0.70;;;0.70;;
1328;SDS011;658;48.820;9.354;2023-12-20T08:12:00;1.10;;;0.80;;
1328;SDS011;658;48.820;9.354;2023-12-20T08:16:00;0.80;;;0.80;;
1328;SDS011;658;48.820;9.354;2023-12-20T08:20:04;1.20;;;0.70;;
1328;SDS011;658;48.820;9.354;2023-12-20T08:24:07;0.83;;;0.83;;
1328;SDS011;658;48.820;9.354;2023-12-20T08:28:08;0.60;;;0.60;;
1328;SDS011;658;48.820;9.354;2023-12-20T08:32:11;0.90;;;0.90;;
1328;SDS011;658;48.820;9.354;2023-12-20T08:36:11;0.80;;;0.80;;
1328;SDS011;658;48.820;9.354;2023-12-20T08:40:12;1.27;;;0.70;;
1328;SDS011;658;48.820;9.354;2023-12-20T08:44:13;1.03;;;0.60;;
1328;SDS011;658;48.820;9.354;2023-12-20T08:48:14;0.70;;;0.70;;
1328;SDS011;658;48.820;9.354;2023-12-20T08:52:14;1.07;;;0.70;;
1328;SDS011;658;48.820;9.354;2023-12-20T08:56:18;0.53;;;0.53;;
1328;SDS011;658;48.820;9.354;2023-12-20T09:00:18;0.60;;;0.60;;
1328;SDS011;658;48.820;9.354;2023-12-20T09:04:23;0.70;;;0.70;;
1328;SDS011;658;48.820;9.354;2023-12-20T09:08:23;2.40;;;1.73;;
1328;SDS011;658;48.820;9.354;2023-12-20T09:12:24;1.57;;;1.23;;
1328;SDS011;658;48.820;9.354;2023-12-20T09:16:27;2.57;;;1.73;;
1328;SDS011;658;48.820;9.354;2023-12-20T09:20:28;1.60;;;1.50;;
1328;SDS011;658;48.820;9.354;2023-12-20T09:24:29;1.60;;;1.50;;
1328;SDS011;658;48.820;9.354;2023-12-20T09:28:30;2.03;;;1.90;;
1328;SDS011;658;48.820;9.354;2023-12-20T09:32:35;1.80;;;1.70;;
1328;SDS011;658;48.820;9.354;2023-12-20T09:36:36;1.70;;;1.60;;
1328;SDS011;658;48.820;9.354;2023-12-20T09:40:39;1.60;;;1.50;;
1328;SDS011;658;48.820;9.354;2023-12-20T09:44:42;1.10;;;1.10;;
1328;SDS011;658;48.820;9.354;2023-12-20T09:48:44;1.63;;;1.20;;
1328;SDS011;658;48.820;9.354;2023-12-20T09:52:46;1.50;;;1.40;;
1328;SDS011;658;48.820;9.354;2023-12-20T09:56:50;1.30;;;1.20;;
1328;SDS011;658;48.820;9.354;2023-12-20T10:00:51;1.30;;;1.20;;
1328;SDS011;658;48.820;9.354;2023-12-20T10:04:54;1.00;;;1.00;;
1328;SDS011;658;48.820;9.354;2023-12-20T10:08:55;1.33;;;1.20;;
1328;SDS011;658;48.820;9.354;2023-12-20T10:13:05;0.90;;;0.90;;
1328;SDS011;658;48.820;9.354;2023-12-20T10:17:10;0.87;;;0.87;;
1328;SDS011;658;48.820;9.354;2023-12-20T10:21:10;1.07;;;1.07;;
1328;SDS011;658;48.820;9.354;2023-12-20T10:25:14;0.73;;;0.73;;
1328;SDS011;658;48.820;9.354;2023-12-20T10:29:14;1.00;;;1.00;;
1328;SDS011;658;48.820;9.354;2023-12-20T10:33:23;0.90;;;0.90;;
1328;SDS011;658;48.820;9.354;2023-12-20T10:37:25;1.27;;;1.20;;
1328;SDS011;658;48.820;9.354;2023-12-20T10:41:26;0.70;;;0.70;;
1328;SDS011;658;48.820;9.354;2023-12-20T10:45:31;0.87;;;0.87;;
1328;SDS011;658;48.820;9.354;2023-12-20T10:49:33;1.43;;;0.80;;
1328;SDS011;658;48.820;9.354;2023-12-20T10:53:36;0.73;;;0.73;;
1328;SDS011;658;48.820;9.354;2023-12-20T10:57:39;0.90;;;0.90;;
1328;SDS011;658;48.820;9.354;2023-12-20T11:01:41;1.00;;;1.00;;
1328;SDS011;658;48.820;9.354;2023-12-20T11:09:58;1.07;;;0.97;;
1328;SDS011;658;48.820;9.354;2023-12-20T11:14:06;1.00;;;0.80;;
1328;SDS011;658;48.820;9.354;2023-12-20T11:18:11;0.97;;;0.97;;
1328;SDS011;658;48.820;9.354;2023-12-20T11:22:14;1.53;;;0.97;;
1328;SDS011;658;48.820;9.354;2023-12-20T11:26:22;0.80;;;0.80;;
1328;SDS011;658;48.820;9.354;2023-12-20T11:30:26;0.83;;;0.83;;
1328;SDS011;658;48.820;9.354;2023-12-20T11:34:45;0.80;;;0.80;;
1328;SDS011;658;48.820;9.354;2023-12-20T11:38:56;1.07;;;1.07;;
1328;SDS011;658;48.820;9.354;2023-12-20T11:43:03;1.30;;;1.13;;
1328;SDS011;658;48.820;9.354;2023-12-20T11:47:07;1.60;;;0.90;;
1328;SDS011;658;48.820;9.354;2023-12-20T11:51:09;0.90;;;0.90;;
1328;SDS011;658;48.820;9.354;2023-12-20T11:55:13;1.43;;;1.10;;
1328;SDS011;658;48.820;9.354;2023-12-20T11:59:14;1.37;;;1.10;;
1328;SDS011;658;48.820;9.354;2023-12-20T12:03:20;1.50;;;1.10;;
1328;SDS011;658;48.820;9.354;2023-12-20T12:07:24;3.30;;;1.03;;
1328;SDS011;658;48.820;9.354;2023-12-20T12:11:24;1.13;;;1.03;;
1328;SDS011;658;48.820;9.354;2023-12-20T12:15:25;1.67;;;1.00;;
1328;SDS011;658;48.820;9.354;2023-12-20T12:19:26;2.27;;;1.00;;
1328;SDS011;658;48.820;9.354;2023-12-20T12:23:27;1.33;;;0.97;;
1328;SDS011;658;48.820;9.354;2023-12-20T12:27:27;1.27;;;0.83;;
1328;SDS011;658;48.820;9.354;2023-12-20T12:31:28;1.30;;;0.90;;
1328;SDS011;658;48.820;9.354;2023-12-20T12:35:28;1.50;;;1.00;;
1328;SDS011;658;48.820;9.354;2023-12-20T12:39:29;1.00;;;0.80;;
1328;SDS011;658;48.820;9.354;2023-12-20T12:43:30;1.00;;;0.87;;
1328;SDS011;658;48.820;9.354;2023-12-20T12:47:31;1.37;;;1.07;;
1328;SDS011;658;48.820;9.354;2023-12-20T12:51:32;0.70;;;0.70;;
1328;SDS011;658;48.820;9.354;2023-12-20T12:55:33;1.73;;;0.90;;
1328;SDS011;658;48.820;9.354;2023-12-20T12:59:35;1.17;;;0.90;;
1328;SDS011;658;48.820;9.354;2023-12-20T13:03:35;0.73;;;0.73;;
1328;SDS011;658;48.820;9.354;2023-12-20T13:07:36;1.00;;;0.90;;
1328;SDS011;658;48.820;9.354;2023-12-20T13:11:37;0.97;;;0.97;;
1328;SDS011;658;48.820;9.354;2023-12-20T13:15:40;1.33;;;0.90;;
1328;SDS011;658;48.820;9.354;2023-12-20T13:19:41;2.00;;;1.20;;
1328;SDS011;658;48.820;9.354;2023-12-20T13:23:41;1.00;;;0.90;;
1328;SDS011;658;48.820;9.354;2023-12-20T13:27:42;0.70;;;0.70;;
1328;SDS011;658;48.820;9.354;2023-12-20T13:31:43;0.90;;;0.90;;
1328;SDS011;658;48.820;9.354;2023-12-20T13:35:44;0.97;;;0.77;;
1328;SDS011;658;48.820;9.354;2023-12-20T13:39:44;1.33;;;0.80;;
1328;SDS011;658;48.820;9.354;2023-12-20T13:43:45;1.00;;;0.70;;
1328;SDS011;658;48.820;9.354;2023-12-20T13:47:48;0.97;;;0.80;;
1328;SDS011;658;48.820;9.354;2023-12-20T13:51:49;1.00;;;0.90;;
1328;SDS011;658;48.820;9.354;2023-12-20T13:55:50;0.90;;;0.70;;
1328;SDS011;658;48.820;9.354;2023-12-20T13:59:53;1.70;;;0.97;;
1328;SDS011;658;48.820;9.354;2023-12-20T14:03:54;1.07;;;0.90;;
1328;SDS011;658;48.820;9.354;2023-12-20T14:07:54;1.00;;;0.80;;
1328;SDS011;658;48.820;9.354;2023-12-20T14:11:57;0.80;;;0.80;;
1328;SDS011;658;48.820;9.354;2023-12-20T14:15:58;0.97;;;0.93;;
1328;SDS011;658;48.820;9.354;2023-12-20T14:20:00;1.50;;;0.90;;
1328;SDS011;658;48.820;9.354;2023-12-20T14:24:01;1.03;;;0.70;;
1328;SDS011;658;48.820;9.354;2023-12-20T14:28:01;0.83;;;0.80;;
1328;SDS011;658;48.820;9.354;2023-12-20T14:32:02;0.97;;;0.87;;
1328;SDS011;658;48.820;9.354;2023-12-20T14:36:04;0.90;;;0.90;;
1328;SDS011;658;48.820;9.354;2023-12-20T14:40:08;0.90;;;0.90;;
1328;SDS011;658;48.820;9.354;2023-12-20T14:44:17;0.93;;;0.87;;
1328;SDS011;658;48.820;9.354;2023-12-20T14:48:17;0.60;;;0.60;;
1328;SDS011;658;48.820;9.354;2023-12-20T14:52:18;1.00;;;0.80;;
1328;SDS011;658;48.820;9.354;2023-12-20T14:56:19;0.73;;;0.73;;
1328;SDS011;658;48.820;9.354;2023-12-20T15:00:20;0.70;;;0.70;;
1328;SDS011;658;48.820;9.354;2023-12-20T15:04:20;0.53;;;0.53;;
1328;SDS011;658;48.820;9.354;2023-12-20T15:08:28;1.27;;;0.90;;
1328;SDS011;658;48.820;9.354;2023-12-20T15:12:29;0.93;;;0.80;;
1328;SDS011;658;48.820;9.354;2023-12-20T15:16:29;1.00;;;0.87;;
1328;SDS011;658;48.820;9.354;2023-12-20T15:20:30;0.80;;;0.73;;
1328;SDS011;658;48.820;9.354;2023-12-20T15:24:35;1.67;;;0.70;;
1328;SDS011;658;48.820;9.354;2023-12-20T15:28:42;0.83;;;0.70;;
1328;SDS011;658;48.820;9.354;2023-12-20T15:32:43;0.80;;;0.80;;
1328;SDS011;658;48.820;9.354;2023-12-20T15:36:43;0.80;;;0.80;;
1328;SDS011;658;48.820;9.354;2023-12-20T15:40:46;1.20;;;0.80;;
1328;SDS011;658;48.820;9.354;2023-12-20T15:44:49;0.77;;;0.77;;
1328;SDS011;658;48.820;9.354;2023-12-20T15:48:50;0.93;;;0.63;;
1328;SDS011;658;48.820;9.354;2023-12-20T15:52:52;1.40;;;0.80;;
1328;SDS011;658;48.820;9.354;2023-12-20T15:56:53;1.27;;;0.70;;
1328;SDS011;658;48.820;9.354;2023-12-20T16:00:53;0.60;;;0.60;;
1328;SDS011;658;48.820;9.354;2023-12-20T16:04:54;0.90;;;0.70;;
1328;SDS011;658;48.820;9.354;2023-12-20T16:08:54;0.80;;;0.80;;
1328;SDS011;658;48.820;9.354;2023-12-20T16:12:56;0.60;;;0.60;;
1328;SDS011;658;48.820;9.354;2023-12-20T16:16:56;1.27;;;0.90;;
1328;SDS011;658;48.820;9.354;2023-12-20T16:20:59;0.60;;;0.60;;
1328;SDS011;658;48.820;9.354;2023-12-20T16:25:01;1.80;;;1.00;;
1328;SDS011;658;48.820;9.354;2023-12-20T16:29:02;1.60;;;0.87;;
1328;SDS011;658;48.820;9.354;2023-12-20T16:33:02;0.60;;;0.60;;
1328;SDS011;658;48.820;9.354;2023-12-20T16:37:03;1.23;;;0.60;;
1328;SDS011;658;48.820;9.354;2023-12-20T16:41:06;1.40;;;1.00;;
1328;SDS011;658;48.820;9.354;2023-12-20T16:45:07;0.70;;;0.60;;
1328;SDS011;658;48.820;9.354;2023-12-20T16:49:09;0.97;;;0.70;;
1328;SDS011;658;48.820;9.354;2023-12-20T16:53:10;0.60;;;0.57;;
1328;SDS011;658;48.820;9.354;2023-12-20T16:57:11;1.00;;;0.83;;
1328;SDS011;658;48.820;9.354;2023-12-20T17:01:12;1.00;;;0.87;;
1328;SDS011;658;48.820;9.354;2023-12-20T17:05:17;0.90;;;0.63;;
1328;SDS011;658;48.820;9.354;2023-12-20T17:09:18;0.60;;;0.60;;
1328;SDS011;658;48.820;9.354;2023-12-20T17:13:18;0.90;;;0.57;;
1328;SDS011;658;48.820;9.354;2023-12-20T17:17:19;1.97;;;0.80;;
1328;SDS011;658;48.820;9.354;2023-12-20T17:21:20;1.13;;;0.70;;
1328;SDS011;658;48.820;9.354;2023-12-20T17:25:21;2.10;;;0.73;;
1328;SDS011;658;48.820;9.354;2023-12-20T17:29:23;2.17;;;0.80;;
1328;SDS011;658;48.820;9.354;2023-12-20T17:33:23;1.80;;;0.70;;
1328;SDS011;658;48.820;9.354;2023-12-20T17:37:24;1.20;;;0.70;;
1328;SDS011;658;48.820;9.354;2023-12-20T17:41:24;0.80;;;0.80;;
1328;SDS011;658;48.820;9.354;2023-12-20T17:45:25;0.63;;;0.60;;
1328;SDS011;658;48.820;9.354;2023-12-20T17:49:25;1.07;;;0.70;;
1328;SDS011;658;48.820;9.354;2023-12-20T17:53:31;1.37;;;0.80;;
1328;SDS011;658;48.820;9.354;2023-12-20T17:57:31;0.70;;;0.70;;
1328;SDS011;658;48.820;9.354;2023-12-20T18:01:32;0.90;;;0.70;;
1328;SDS011;658;48.820;9.354;2023-12-20T18:05:33;0.70;;;0.70;;
1328;SDS011;658;48.820;9.354;2023-12-20T18:09:33;0.60;;;0.60;;
1328;SDS011;658;48.820;9.354;2023-12-20T18:13:36;3.50;;;1.13;;
1328;SDS011;658;48.820;9.354;2023-12-20T18:17:37;0.70;;;0.70;;
1328;SDS011;658;48.820;9.354;2023-12-20T18:21:37;1.27;;;0.60;;
1328;SDS011;658;48.820;9.354;2023-12-20T18:25:38;0.60;;;0.60;;
1328;SDS011;658;48.820;9.354;2023-12-20T18:29:39;0.80;;;0.60;;
1328;SDS011;658;48.820;9.354;2023-12-20T18:33:39;0.90;;;0.53;;
1328;SDS011;658;48.820;9.354;2023-12-20T18:37:40;1.00;;;0.80;;
1328;SDS011;658;48.820;9.354;2023-12-20T18:41:43;0.70;;;0.70;;
1328;SDS011;658;48.820;9.354;2023-12-20T18:45:48;0.60;;;0.60;;
1328;SDS011;658;48.820;9.354;2023-12-20T18:49:48;1.13;;;0.83;;
1328;SDS011;658;48.820;9.354;2023-12-20T18:53:49;0.80;;;0.63;;
1328;SDS011;658;48.820;9.354;2023-12-20T18:57:54;0.70;;;0.60;;
1328;SDS011;658;48.820;9.354;2023-12-20T19:01:54;0.70;;;0.70;;
1328;SDS011;658;48.820;9.354;2023-12-20T19:05:58;0.50;;;0.50;;
1328;SDS011;658;48.820;9.354;2023-12-20T19:10:00;1.30;;;0.80;;
1328;SDS011;658;48.820;9.354;2023-12-20T19:14:01;3.57;;;0.60;;
1328;SDS011;658;48.820;9.354;2023-12-20T19:18:02;1.00;;;0.80;;
1328;SDS011;658;48.820;9.354;2023-12-20T19:22:03;1.07;;;0.60;;
1328;SDS011;658;48.820;9.354;2023-12-20T19:26:04;0.53;;;0.53;;
1328;SDS011;658;48.820;9.354;2023-12-20T19:30:04;0.60;;;0.60;;
1328;SDS011;658;48.820;9.354;2023-12-20T19:34:06;0.70;;;0.70;;
1328;SDS011;658;48.820;9.354;2023-12-20T19:38:06;0.53;;;0.53;;
1328;SDS011;658;48.820;9.354;2023-12-20T19:42:07;0.90;;;0.70;;
1328;SDS011;658;48.820;9.354;2023-12-20T19:46:08;0.70;;;0.60;;
1328;SDS011;658;48.820;9.354;2023-12-20T19:50:09;2.53;;;0.70;;
1328;SDS011;658;48.820;9.354;2023-12-20T19:54:10;0.67;;;0.50;;
1328;SDS011;658;48.820;9.354;2023-12-20T19:58:11;0.90;;;0.70;;
1328;SDS011;658;48.820;9.354;2023-12-20T20:02:12;0.83;;;0.60;;
1328;SDS011;658;48.820;9.354;2023-12-20T20:06:12;0.83;;;0.60;;
1328;SDS011;658;48.820;9.354;2023-12-20T20:10:13;2.50;;;0.60;;
1328;SDS011;658;48.820;9.354;2023-12-20T20:14:14;0.70;;;0.70;;
1328;SDS011;658;48.820;9.354;2023-12-20T20:18:15;1.30;;;0.80;;
1328;SDS011;658;48.820;9.354;2023-12-20T20:22:15;0.50;;;0.50;;
1328;SDS011;658;48.820;9.354;2023-12-20T20:26:16;0.80;;;0.50;;
1328;SDS011;658;48.820;9.354;2023-12-20T20:30:17;0.80;;;0.60;;
1328;SDS011;658;48.820;9.354;2023-12-20T20:34:18;0.57;;;0.50;;
1328;SDS011;658;48.820;9.354;2023-12-20T20:38:20;0.60;;;0.50;;
1328;SDS011;658;48.820;9.354;2023-12-20T20:42:21;1.07;;;0.70;;
1328;SDS011;658;48.820;9.354;2023-12-20T20:46:25;0.80;;;0.60;;
1328;SDS011;658;48.820;9.354;2023-12-20T20:50:28;0.50;;;0.50;;
1328;SDS011;658;48.820;9.354;2023-12-20T20:54:29;0.63;;;0.63;;
1328;SDS011;658;48.820;9.354;2023-12-20T20:58:32;0.77;;;0.47;;
1328;SDS011;658;48.820;9.354;2023-12-20T21:02:35;2.77;;;0.57;;
1328;SDS011;658;48.820;9.354;2023-12-20T21:06:36;1.00;;;0.80;;
1328;SDS011;658;48.820;9.354;2023-12-20T21:10:37;0.60;;;0.60;;
1328;SDS011;658;48.820;9.354;2023-12-20T21:14:37;0.90;;;0.80;;
1328;SDS011;658;48.820;9.354;2023-12-20T21:18:38;0.60;;;0.60;;
1328;SDS011;658;48.820;9.354;2023-12-20T21:22:39;0.70;;;0.50;;
1328;SDS011;658;48.820;9.354;2023-12-20T21:26:40;0.60;;;0.60;;
1328;SDS011;658;48.820;9.354;2023-12-20T21:30:42;0.87;;;0.70;;
1328;SDS011;658;48.820;9.354;2023-12-20T21:34:42;0.90;;;0.60;;
1328;SDS011;658;48.820;9.354;2023-12-20T21:38:43;0.50;;;0.50;;
1328;SDS011;658;48.820;9.354;2023-12-20T21:42:44;1.50;;;0.67;;
1328;SDS011;658;48.820;9.354;2023-12-20T21:46:47;2.10;;;1.50;;
1328;SDS011;658;48.820;9.354;2023-12-20T21:50:48;1.17;;;0.70;;
1328;SDS011;658;48.820;9.354;2023-12-20T21:54:48;0.53;;;0.53;;
1328;SDS011;658;48.820;9.354;2023-12-20T21:58:51;0.63;;;0.60;;
1328;SDS011;658;48.820;9.354;2023-12-20T22:02:52;0.60;;;0.53;;
1328;SDS011;658;48.820;9.354;2023-12-20T22:06:52;0.70;;;0.60;;
1328;SDS011;658;48.820;9.354;2023-12-20T22:10:53;0.50;;;0.47;;
1328;SDS011;658;48.820;9.354;2023-12-20T22:14:54;1.90;;;0.60;;
1328;SDS011;658;48.820;9.354;2023-12-20T22:18:57;0.60;;;0.50;;
1328;SDS011;658;48.820;9.354;2023-12-20T22:23:00;0.47;;;0.47;;
1328;SDS011;658;48.820;9.354;2023-12-20T22:27:03;0.80;;;0.70;;
1328;SDS011;658;48.820;9.354;2023-12-20T22:31:04;0.77;;;0.67;;
1328;SDS011;658;48.820;9.354;2023-12-20T22:35:05;0.83;;;0.50;;
1328;SDS011;658;48.820;9.354;2023-12-20T22:39:06;0.43;;;0.43;;
1328;SDS011;658;48.820;9.354;2023-12-20T22:43:07;0.70;;;0.60;;
1328;SDS011;658;48.820;9.354;2023-12-20T22:47:07;0.60;;;0.60;;
1328;SDS011;658;48.820;9.354;2023-12-20T22:51:10;0.53;;;0.53;;
1328;SDS011;658;48.820;9.354;2023-12-20T22:55:11;0.50;;;0.50;;
1328;SDS011;658;48.820;9.354;2023-12-20T22:59:12;0.50;;;0.50;;
1328;SDS011;658;48.820;9.354;2023-12-20T23:03:13;0.30;;;0.30;;
1328;SDS011;658;48.820;9.354;2023-12-20T23:07:14;0.60;;;0.60;;
1328;SDS011;658;48.820;9.354;2023-12-20T23:11:15;1.10;;;0.50;;
1328;SDS011;658;48.820;9.354;2023-12-20T23:15:16;0.50;;;0.50;;
1328;SDS011;658;48.820;9.354;2023-12-20T23:19:16;0.83;;;0.80;;
1328;SDS011;658;48.820;9.354;2023-12-20T23:23:17;0.50;;;0.50;;
1328;SDS011;658;48.820;9.354;2023-12-20T23:27:17;0.50;;;0.50;;
1328;SDS011;658;48.820;9.354;2023-12-20T23:31:22;0.50;;;0.43;;
1328;SDS011;658;48.820;9.354;2023-12-20T23:35:24;0.57;;;0.57;;
1328;SDS011;658;48.820;9.354;2023-12-20T23:39:27;0.70;;;0.60;;
1328;SDS011;658;48.820;9.354;2023-12-20T23:43:28;0.70;;;0.60;;
1328;SDS011;658;48.820;9.354;2023-12-20T23:47:29;0.50;;;0.50;;
1328;SDS011;658;48.820;9.354;2023-12-20T23:51:29;0.67;;;0.63;;
1328;SDS011;658;48.820;9.354;2023-12-20T23:55:30;0.50;;;0.50;;
1328;SDS011;658;48.820;9.354;2023-12-20T23:59:30;0.73;;;0.60;;
